sensor_id;sensor_type;location;lat;lon;timestamp;temperature;humidity
36594;DHT22;22603;47.900;8.146;2023-04-28T00:02:12;7.90;99.90
36594;DHT22;22603;47.900;8.146;2023-04-28T00:05:01;7.90;99.90
36594;DHT22;22603;47.900;8.146;2023-04-28T00:07:48;7.80;99.90
36594;DHT22;22603;47.900;8.146;2023-04-28T00:10:34;7.80;99.90
36594;DHT22;22603;47.900;8.146;2023-04-28T00:13:21;7.90;99.90
36594;DHT22;22603;47.900;8.146;2023-04-28T00:16:08;8.00;99.90
36594;DHT22;22603;47.900;8.146;2023-04-28T00:18:56;8.10;99.90
36594;DHT22;22603;47.900;8.146;2023-04-28T00:21:44;8.10;99.90
36594;DHT22;22603;47.900;8.146;2023-04-28T00:24:31;8.10;99.90
36594;DHT22;22603;47.900;8.146;2023-04-28T00:27:20;8.10;99.90
36594;DHT22;22603;47.900;8.146;2023-04-28T00:30:08;8.10;99.90
36594;DHT22;22603;47.900;8.146;2023-04-28T00:32:55;8.10;99.90
36594;DHT22;22603;47.900;8.146;2023-04-28T00:35:42;8.10;99.90
36594;DHT22;22603;47.900;8.146;2023-04-28T00:38:30;8.10;99.90
36594;DHT22;22603;47.900;8.146;2023-04-28T00:41:17;8.00;99.90
36594;DHT22;22603;47.900;8.146;2023-04-28T00:44:03;8.00;99.90
36594;DHT22;22603;47.900;8.146;2023-04-28T00:46:51;8.10;99.90
36594;DHT22;22603;47.900;8.146;2023-04-28T00:49:38;8.00;99.90
36594;DHT22;22603;47.900;8.146;2023-04-28T00:52:25;7.90;99.90
36594;DHT22;22603;47.900;8.146;2023-04-28T00:55:14;7.90;99.90
36594;DHT22;22603;47.900;8.146;2023-04-28T00:58:01;7.90;99.90
36594;DHT22;22603;47.900;8.146;2023-04-28T01:00:48;7.90;99.90
36594;DHT22;22603;47.900;8.146;2023-04-28T01:03:36;8.00;99.90
36594;DHT22;22603;47.900;8.146;2023-04-28T01:06:24;8.10;99.90
36594;DHT22;22603;47.900;8.146;2023-04-28T01:09:11;8.20;99.90
36594;DHT22;22603;47.900;8.146;2023-04-28T01:12:00;8.20;99.90
36594;DHT22;22603;47.900;8.146;2023-04-28T01:14:48;8.20;99.90
36594;DHT22;22603;47.900;8.146;2023-04-28T01:17:35;8.20;99.90
36594;DHT22;22603;47.900;8.146;2023-04-28T01:20:22;8.20;99.90
36594;DHT22;22603;47.900;8.146;2023-04-28T01:23:11;8.20;99.90
36594;DHT22;22603;47.900;8.146;2023-04-28T01:26:00;8.30;99.90
36594;DHT22;22603;47.900;8.146;2023-04-28T01:28:47;8.20;99.90
36594;DHT22;22603;47.900;8.146;2023-04-28T01:31:34;8.30;99.90
36594;DHT22;22603;47.900;8.146;2023-04-28T01:34:21;8.20;99.90
36594;DHT22;22603;47.900;8.146;2023-04-28T01:37:15;8.30;99.90
36594;DHT22;22603;47.900;8.146;2023-04-28T01:40:02;8.30;99.90
36594;DHT22;22603;47.900;8.146;2023-04-28T01:42:51;8.30;99.90
36594;DHT22;22603;47.900;8.146;2023-04-28T01:45:38;8.30;99.90
36594;DHT22;22603;47.900;8.146;2023-04-28T01:48:25;8.20;99.90
36594;DHT22;22603;47.900;8.146;2023-04-28T01:51:12;8.20;99.90
36594;DHT22;22603;47.900;8.146;2023-04-28T01:54:06;8.10;99.90
36594;DHT22;22603;47.900;8.146;2023-04-28T01:57:30;8.10;99.90
36594;DHT22;22603;47.900;8.146;2023-04-28T02:00:20;8.10;99.90
36594;DHT22;22603;47.900;8.146;2023-04-28T02:03:08;8.00;99.90
36594;DHT22;22603;47.900;8.146;2023-04-28T02:05:55;8.00;99.90
36594;DHT22;22603;47.900;8.146;2023-04-28T02:08:41;8.10;99.90
36594;DHT22;22603;47.900;8.146;2023-04-28T02:11:28;8.10;99.90
36594;DHT22;22603;47.900;8.146;2023-04-28T02:14:15;8.10;99.90
36594;DHT22;22603;47.900;8.146;2023-04-28T02:17:04;8.10;99.90
36594;DHT22;22603;47.900;8.146;2023-04-28T02:19:54;8.10;99.90
36594;DHT22;22603;47.900;8.146;2023-04-28T02:22:47;8.00;99.90
36594;DHT22;22603;47.900;8.146;2023-04-28T02:25:33;8.10;99.90
36594;DHT22;22603;47.900;8.146;2023-04-28T02:28:21;8.10;99.90
36594;DHT22;22603;47.900;8.146;2023-04-28T02:31:09;8.10;99.90
36594;DHT22;22603;47.900;8.146;2023-04-28T02:33:57;8.10;99.90
36594;DHT22;22603;47.900;8.146;2023-04-28T02:36:44;8.00;99.90
36594;DHT22;22603;47.900;8.146;2023-04-28T02:39:37;8.00;99.90
36594;DHT22;22603;47.900;8.146;2023-04-28T02:42:25;8.00;99.90
36594;DHT22;22603;47.900;8.146;2023-04-28T02:45:13;8.10;99.90
36594;DHT22;22603;47.900;8.146;2023-04-28T02:48:00;8.10;99.90
36594;DHT22;22603;47.900;8.146;2023-04-28T02:50:49;8.10;99.90
36594;DHT22;22603;47.900;8.146;2023-04-28T02:53:37;8.10;99.90
36594;DHT22;22603;47.900;8.146;2023-04-28T02:56:24;8.20;99.90
36594;DHT22;22603;47.900;8.146;2023-04-28T02:59:10;7.90;99.90
36594;DHT22;22603;47.900;8.146;2023-04-28T03:01:57;7.90;99.90
36594;DHT22;22603;47.900;8.146;2023-04-28T03:04:44;8.00;99.90
36594;DHT22;22603;47.900;8.146;2023-04-28T03:07:32;8.00;99.90
36594;DHT22;22603;47.900;8.146;2023-04-28T03:10:19;8.00;99.90
36594;DHT22;22603;47.900;8.146;2023-04-28T03:13:06;8.00;99.90
36594;DHT22;22603;47.900;8.146;2023-04-28T03:15:53;8.10;99.90
36594;DHT22;22603;47.900;8.146;2023-04-28T03:18:47;8.10;99.90
36594;DHT22;22603;47.900;8.146;2023-04-28T03:21:34;8.10;99.90
36594;DHT22;22603;47.900;8.146;2023-04-28T03:24:22;8.10;99.90
36594;DHT22;22603;47.900;8.146;2023-04-28T03:27:09;8.10;99.90
36594;DHT22;22603;47.900;8.146;2023-04-28T03:30:01;8.10;99.90
36594;DHT22;22603;47.900;8.146;2023-04-28T03:32:48;8.10;99.90
36594;DHT22;22603;47.900;8.146;2023-04-28T03:35:35;8.10;99.90
36594;DHT22;22603;47.900;8.146;2023-04-28T03:38:22;8.10;99.90
36594;DHT22;22603;47.900;8.146;2023-04-28T03:41:17;8.10;99.90
36594;DHT22;22603;47.900;8.146;2023-04-28T03:44:04;8.20;99.90
36594;DHT22;22603;47.900;8.146;2023-04-28T03:46:51;8.20;99.90
36594;DHT22;22603;47.900;8.146;2023-04-28T03:49:38;8.20;99.90
36594;DHT22;22603;47.900;8.146;2023-04-28T03:52:25;8.10;99.90
36594;DHT22;22603;47.900;8.146;2023-04-28T03:55:12;8.00;99.90
36594;DHT22;22603;47.900;8.146;2023-04-28T03:58:00;7.90;99.90
36594;DHT22;22603;47.900;8.146;2023-04-28T04:00:47;8.00;99.90
36594;DHT22;22603;47.900;8.146;2023-04-28T04:03:34;8.10;99.90
36594;DHT22;22603;47.900;8.146;2023-04-28T04:06:21;8.10;99.90
36594;DHT22;22603;47.900;8.146;2023-04-28T04:09:08;8.10;99.90
36594;DHT22;22603;47.900;8.146;2023-04-28T04:11:55;8.10;99.90
36594;DHT22;22603;47.900;8.146;2023-04-28T04:14:44;8.10;99.90
36594;DHT22;22603;47.900;8.146;2023-04-28T04:17:31;8.10;99.90
36594;DHT22;22603;47.900;8.146;2023-04-28T04:20:18;8.10;99.90
36594;DHT22;22603;47.900;8.146;2023-04-28T04:23:05;8.20;99.90
36594;DHT22;22603;47.900;8.146;2023-04-28T04:25:52;8.20;99.90
36594;DHT22;22603;47.900;8.146;2023-04-28T04:28:39;8.10;99.90
36594;DHT22;22603;47.900;8.146;2023-04-28T04:31:27;8.10;99.90
36594;DHT22;22603;47.900;8.146;2023-04-28T04:34:14;8.10;99.90
36594;DHT22;22603;47.900;8.146;2023-04-28T04:37:02;8.10;99.90
36594;DHT22;22603;47.900;8.146;2023-04-28T04:39:49;8.20;99.90
36594;DHT22;22603;47.900;8.146;2023-04-28T04:42:36;8.20;99.90
36594;DHT22;22603;47.900;8.146;2023-04-28T04:45:23;8.20;99.90
36594;DHT22;22603;47.900;8.146;2023-04-28T04:48:11;8.30;99.90
36594;DHT22;22603;47.900;8.146;2023-04-28T04:50:58;8.30;99.90
36594;DHT22;22603;47.900;8.146;2023-04-28T04:53:45;8.40;99.90
36594;DHT22;22603;47.900;8.146;2023-04-28T04:56:32;8.30;99.90
36594;DHT22;22603;47.900;8.146;2023-04-28T04:59:19;8.40;99.90
36594;DHT22;22603;47.900;8.146;2023-04-28T05:02:06;8.40;99.90
36594;DHT22;22603;47.900;8.146;2023-04-28T05:04:54;8.40;99.90
36594;DHT22;22603;47.900;8.146;2023-04-28T05:08:01;8.50;99.90
36594;DHT22;22603;47.900;8.146;2023-04-28T05:10:48;8.50;99.90
36594;DHT22;22603;47.900;8.146;2023-04-28T05:13:34;8.70;99.90
36594;DHT22;22603;47.900;8.146;2023-04-28T05:16:21;8.80;99.90
36594;DHT22;22603;47.900;8.146;2023-04-28T05:19:09;8.90;99.90
36594;DHT22;22603;47.900;8.146;2023-04-28T05:21:57;9.00;99.90
36594;DHT22;22603;47.900;8.146;2023-04-28T05:24:45;9.20;99.90
36594;DHT22;22603;47.900;8.146;2023-04-28T05:27:32;9.30;99.90
36594;DHT22;22603;47.900;8.146;2023-04-28T05:30:22;9.30;99.90
36594;DHT22;22603;47.900;8.146;2023-04-28T05:33:09;9.50;99.90
36594;DHT22;22603;47.900;8.146;2023-04-28T05:35:56;9.60;99.90
36594;DHT22;22603;47.900;8.146;2023-04-28T05:38:52;9.70;99.90
36594;DHT22;22603;47.900;8.146;2023-04-28T05:41:39;9.80;99.90
36594;DHT22;22603;47.900;8.146;2023-04-28T05:44:26;9.80;99.90
36594;DHT22;22603;47.900;8.146;2023-04-28T05:47:12;9.90;99.90
36594;DHT22;22603;47.900;8.146;2023-04-28T05:50:07;9.90;99.90
36594;DHT22;22603;47.900;8.146;2023-04-28T05:52:54;10.00;99.90
36594;DHT22;22603;47.900;8.146;2023-04-28T05:55:49;10.00;99.90
36594;DHT22;22603;47.900;8.146;2023-04-28T05:58:36;10.00;99.90
36594;DHT22;22603;47.900;8.146;2023-04-28T06:01:32;10.10;99.90
36594;DHT22;22603;47.900;8.146;2023-04-28T06:04:18;10.10;99.90
36594;DHT22;22603;47.900;8.146;2023-04-28T06:07:12;10.10;99.90
36594;DHT22;22603;47.900;8.146;2023-04-28T06:09:59;10.10;99.90
36594;DHT22;22603;47.900;8.146;2023-04-28T06:13:01;10.20;99.90
36594;DHT22;22603;47.900;8.146;2023-04-28T06:15:49;10.20;99.90
36594;DHT22;22603;47.900;8.146;2023-04-28T06:18:44;10.30;99.90
36594;DHT22;22603;47.900;8.146;2023-04-28T06:21:34;10.30;99.90
36594;DHT22;22603;47.900;8.146;2023-04-28T06:24:30;10.30;99.90
36594;DHT22;22603;47.900;8.146;2023-04-28T06:27:16;10.30;99.90
36594;DHT22;22603;47.900;8.146;2023-04-28T06:30:16;10.30;99.90
36594;DHT22;22603;47.900;8.146;2023-04-28T06:33:04;10.30;99.90
36594;DHT22;22603;47.900;8.146;2023-04-28T06:35:58;10.40;99.90
36594;DHT22;22603;47.900;8.146;2023-04-28T06:38:45;10.30;99.90
36594;DHT22;22603;47.900;8.146;2023-04-28T06:41:32;10.40;99.90
36594;DHT22;22603;47.900;8.146;2023-04-28T06:44:19;10.40;99.90
36594;DHT22;22603;47.900;8.146;2023-04-28T06:47:07;10.40;99.90
36594;DHT22;22603;47.900;8.146;2023-04-28T06:49:54;10.40;99.90
36594;DHT22;22603;47.900;8.146;2023-04-28T06:52:41;10.40;99.90
36594;DHT22;22603;47.900;8.146;2023-04-28T06:55:29;10.50;99.90
36594;DHT22;22603;47.900;8.146;2023-04-28T06:58:16;10.40;99.90
36594;DHT22;22603;47.900;8.146;2023-04-28T07:01:03;10.40;99.90
36594;DHT22;22603;47.900;8.146;2023-04-28T07:03:51;10.40;99.90
36594;DHT22;22603;47.900;8.146;2023-04-28T07:06:39;10.50;99.90
36594;DHT22;22603;47.900;8.146;2023-04-28T07:09:25;10.50;99.90
36594;DHT22;22603;47.900;8.146;2023-04-28T07:12:15;10.50;99.90
36594;DHT22;22603;47.900;8.146;2023-04-28T07:15:02;10.50;99.90
36594;DHT22;22603;47.900;8.146;2023-04-28T07:17:49;10.50;99.90
36594;DHT22;22603;47.900;8.146;2023-04-28T07:20:38;10.50;99.90
36594;DHT22;22603;47.900;8.146;2023-04-28T07:23:25;10.50;99.90
36594;DHT22;22603;47.900;8.146;2023-04-28T07:26:12;10.40;99.90
36594;DHT22;22603;47.900;8.146;2023-04-28T07:29:01;10.40;99.90
36594;DHT22;22603;47.900;8.146;2023-04-28T07:31:48;10.40;99.90
36594;DHT22;22603;47.900;8.146;2023-04-28T07:34:35;10.40;99.90
36594;DHT22;22603;47.900;8.146;2023-04-28T07:37:24;10.40;99.90
36594;DHT22;22603;47.900;8.146;2023-04-28T07:40:11;10.40;99.90
36594;DHT22;22603;47.900;8.146;2023-04-28T07:42:57;10.40;99.90
36594;DHT22;22603;47.900;8.146;2023-04-28T07:45:44;10.50;99.90
36594;DHT22;22603;47.900;8.146;2023-04-28T07:48:33;10.60;99.90
36594;DHT22;22603;47.900;8.146;2023-04-28T07:51:20;10.70;99.90
36594;DHT22;22603;47.900;8.146;2023-04-28T07:54:08;10.70;99.90
36594;DHT22;22603;47.900;8.146;2023-04-28T07:56:55;10.70;99.90
36594;DHT22;22603;47.900;8.146;2023-04-28T07:59:43;10.70;99.90
36594;DHT22;22603;47.900;8.146;2023-04-28T08:02:30;10.80;99.90
36594;DHT22;22603;47.900;8.146;2023-04-28T08:05:19;10.80;99.90
36594;DHT22;22603;47.900;8.146;2023-04-28T08:08:32;10.80;99.90
36594;DHT22;22603;47.900;8.146;2023-04-28T08:11:34;10.90;99.90
36594;DHT22;22603;47.900;8.146;2023-04-28T08:14:21;10.90;99.90
36594;DHT22;22603;47.900;8.146;2023-04-28T08:17:08;10.80;99.90
36594;DHT22;22603;47.900;8.146;2023-04-28T08:19:55;10.90;99.90
36594;DHT22;22603;47.900;8.146;2023-04-28T08:22:43;10.90;99.90
36594;DHT22;22603;47.900;8.146;2023-04-28T08:25:30;10.90;99.90
36594;DHT22;22603;47.900;8.146;2023-04-28T08:28:18;10.90;99.90
36594;DHT22;22603;47.900;8.146;2023-04-28T08:31:05;11.00;99.90
36594;DHT22;22603;47.900;8.146;2023-04-28T08:33:52;10.90;99.90
36594;DHT22;22603;47.900;8.146;2023-04-28T08:36:40;11.00;99.90
36594;DHT22;22603;47.900;8.146;2023-04-28T08:39:27;11.10;99.90
36594;DHT22;22603;47.900;8.146;2023-04-28T08:42:15;11.00;99.90
36594;DHT22;22603;47.900;8.146;2023-04-28T08:45:06;11.10;99.90
36594;DHT22;22603;47.900;8.146;2023-04-28T08:47:54;11.20;99.90
36594;DHT22;22603;47.900;8.146;2023-04-28T08:50:43;11.40;99.90
36594;DHT22;22603;47.900;8.146;2023-04-28T08:53:36;11.50;99.90
36594;DHT22;22603;47.900;8.146;2023-04-28T08:56:44;11.50;99.90
36594;DHT22;22603;47.900;8.146;2023-04-28T08:59:31;11.70;99.90
36594;DHT22;22603;47.900;8.146;2023-04-28T09:02:19;11.80;99.90
36594;DHT22;22603;47.900;8.146;2023-04-28T09:05:07;12.00;99.90
36594;DHT22;22603;47.900;8.146;2023-04-28T09:07:54;12.00;99.90
36594;DHT22;22603;47.900;8.146;2023-04-28T09:10:41;12.10;99.90
36594;DHT22;22603;47.900;8.146;2023-04-28T09:13:28;12.30;99.90
36594;DHT22;22603;47.900;8.146;2023-04-28T09:16:17;12.40;99.90
36594;DHT22;22603;47.900;8.146;2023-04-28T09:19:05;12.50;99.90
36594;DHT22;22603;47.900;8.146;2023-04-28T09:21:53;12.50;99.90
36594;DHT22;22603;47.900;8.146;2023-04-28T09:24:40;12.50;99.90
36594;DHT22;22603;47.900;8.146;2023-04-28T09:27:28;12.60;99.90
36594;DHT22;22603;47.900;8.146;2023-04-28T09:30:15;12.70;99.90
36594;DHT22;22603;47.900;8.146;2023-04-28T09:33:03;12.90;99.90
36594;DHT22;22603;47.900;8.146;2023-04-28T09:35:54;13.10;99.90
36594;DHT22;22603;47.900;8.146;2023-04-28T09:38:43;13.40;99.90
36594;DHT22;22603;47.900;8.146;2023-04-28T09:41:37;13.50;99.90
36594;DHT22;22603;47.900;8.146;2023-04-28T09:44:25;13.40;99.90
36594;DHT22;22603;47.900;8.146;2023-04-28T09:47:19;13.40;99.90
36594;DHT22;22603;47.900;8.146;2023-04-28T09:50:08;13.20;99.90
36594;DHT22;22603;47.900;8.146;2023-04-28T09:52:58;13.10;99.90
36594;DHT22;22603;47.900;8.146;2023-04-28T09:55:49;13.10;99.90
36594;DHT22;22603;47.900;8.146;2023-04-28T09:58:39;13.20;99.90
36594;DHT22;22603;47.900;8.146;2023-04-28T10:01:32;13.30;99.90
36594;DHT22;22603;47.900;8.146;2023-04-28T10:04:22;13.30;99.90
36594;DHT22;22603;47.900;8.146;2023-04-28T10:07:11;13.30;99.90
36594;DHT22;22603;47.900;8.146;2023-04-28T10:10:06;13.20;99.90
36594;DHT22;22603;47.900;8.146;2023-04-28T10:12:54;13.20;99.90
36594;DHT22;22603;47.900;8.146;2023-04-28T10:15:41;13.20;99.90
36594;DHT22;22603;47.900;8.146;2023-04-28T10:18:28;13.10;99.90
36594;DHT22;22603;47.900;8.146;2023-04-28T10:21:18;13.10;99.90
36594;DHT22;22603;47.900;8.146;2023-04-28T10:24:14;13.10;99.90
36594;DHT22;22603;47.900;8.146;2023-04-28T10:27:07;13.20;99.90
36594;DHT22;22603;47.900;8.146;2023-04-28T10:30:07;13.20;99.90
36594;DHT22;22603;47.900;8.146;2023-04-28T10:33:24;13.20;99.90
36594;DHT22;22603;47.900;8.146;2023-04-28T10:36:47;13.10;99.90
36594;DHT22;22603;47.900;8.146;2023-04-28T10:39:37;13.00;99.90
36594;DHT22;22603;47.900;8.146;2023-04-28T10:42:51;13.00;99.90
36594;DHT22;22603;47.900;8.146;2023-04-28T10:46:00;12.90;99.90
36594;DHT22;22603;47.900;8.146;2023-04-28T10:49:05;12.90;99.90
36594;DHT22;22603;47.900;8.146;2023-04-28T10:51:53;13.10;99.90
36594;DHT22;22603;47.900;8.146;2023-04-28T10:58:31;13.30;99.90
36594;DHT22;22603;47.900;8.146;2023-04-28T11:01:25;13.50;99.90
36594;DHT22;22603;47.900;8.146;2023-04-28T11:04:13;13.70;99.90
36594;DHT22;22603;47.900;8.146;2023-04-28T11:07:10;13.80;99.90
36594;DHT22;22603;47.900;8.146;2023-04-28T11:10:00;14.00;99.90
36594;DHT22;22603;47.900;8.146;2023-04-28T11:16:07;14.90;99.90
36594;DHT22;22603;47.900;8.146;2023-04-28T11:19:00;15.80;99.90
36594;DHT22;22603;47.900;8.146;2023-04-28T11:21:51;15.90;99.90
36594;DHT22;22603;47.900;8.146;2023-04-28T11:24:39;16.40;99.90
36594;DHT22;22603;47.900;8.146;2023-04-28T11:27:29;16.80;99.90
36594;DHT22;22603;47.900;8.146;2023-04-28T11:30:19;16.90;99.90
36594;DHT22;22603;47.900;8.146;2023-04-28T11:33:07;16.60;99.90
36594;DHT22;22603;47.900;8.146;2023-04-28T11:35:55;17.20;99.90
36594;DHT22;22603;47.900;8.146;2023-04-28T11:38:42;17.90;99.90
36594;DHT22;22603;47.900;8.146;2023-04-28T11:41:30;18.10;99.90
36594;DHT22;22603;47.900;8.146;2023-04-28T11:44:20;18.10;99.90
36594;DHT22;22603;47.900;8.146;2023-04-28T11:47:07;18.30;99.90
36594;DHT22;22603;47.900;8.146;2023-04-28T11:49:54;18.80;99.90
36594;DHT22;22603;47.900;8.146;2023-04-28T11:52:47;19.40;99.90
36594;DHT22;22603;47.900;8.146;2023-04-28T11:55:37;19.60;99.90
36594;DHT22;22603;47.900;8.146;2023-04-28T11:58:25;19.30;99.90
36594;DHT22;22603;47.900;8.146;2023-04-28T12:01:13;18.90;99.90
36594;DHT22;22603;47.900;8.146;2023-04-28T12:04:00;18.40;99.90
36594;DHT22;22603;47.900;8.146;2023-04-28T12:06:58;18.90;99.90
36594;DHT22;22603;47.900;8.146;2023-04-28T12:09:46;19.20;99.90
36594;DHT22;22603;47.900;8.146;2023-04-28T12:12:33;19.50;99.90
36594;DHT22;22603;47.900;8.146;2023-04-28T12:15:39;18.70;99.90
36594;DHT22;22603;47.900;8.146;2023-04-28T12:18:28;18.90;99.90
36594;DHT22;22603;47.900;8.146;2023-04-28T12:21:20;19.50;99.90
36594;DHT22;22603;47.900;8.146;2023-04-28T12:24:18;19.50;99.90
36594;DHT22;22603;47.900;8.146;2023-04-28T12:27:17;19.50;99.90
36594;DHT22;22603;47.900;8.146;2023-04-28T12:30:24;19.20;99.90
36594;DHT22;22603;47.900;8.146;2023-04-28T12:33:23;19.00;99.90
36594;DHT22;22603;47.900;8.146;2023-04-28T12:36:12;18.80;99.90
36594;DHT22;22603;47.900;8.146;2023-04-28T12:39:00;18.50;99.90
36594;DHT22;22603;47.900;8.146;2023-04-28T12:41:47;18.50;99.90
36594;DHT22;22603;47.900;8.146;2023-04-28T12:44:36;19.20;99.90
36594;DHT22;22603;47.900;8.146;2023-04-28T12:47:23;19.80;99.90
36594;DHT22;22603;47.900;8.146;2023-04-28T12:50:10;20.00;99.90
36594;DHT22;22603;47.900;8.146;2023-04-28T12:52:58;19.30;99.90
36594;DHT22;22603;47.900;8.146;2023-04-28T12:55:45;19.30;99.90
36594;DHT22;22603;47.900;8.146;2023-04-28T12:59:00;19.60;99.90
36594;DHT22;22603;47.900;8.146;2023-04-28T13:02:01;19.80;99.90
36594;DHT22;22603;47.900;8.146;2023-04-28T13:05:08;19.90;99.90
36594;DHT22;22603;47.900;8.146;2023-04-28T13:07:55;19.60;99.90
36594;DHT22;22603;47.900;8.146;2023-04-28T13:10:43;19.20;99.90
36594;DHT22;22603;47.900;8.146;2023-04-28T13:13:30;18.90;99.90
36594;DHT22;22603;47.900;8.146;2023-04-28T13:16:17;18.90;99.90
36594;DHT22;22603;47.900;8.146;2023-04-28T13:19:04;19.20;99.90
36594;DHT22;22603;47.900;8.146;2023-04-28T13:21:55;19.30;99.90
36594;DHT22;22603;47.900;8.146;2023-04-28T13:24:42;19.20;99.90
36594;DHT22;22603;47.900;8.146;2023-04-28T13:27:31;19.20;99.90
36594;DHT22;22603;47.900;8.146;2023-04-28T13:30:18;19.40;99.90
36594;DHT22;22603;47.900;8.146;2023-04-28T13:33:05;18.30;99.90
36594;DHT22;22603;47.900;8.146;2023-04-28T13:35:52;18.40;99.90
36594;DHT22;22603;47.900;8.146;2023-04-28T13:38:39;18.60;99.90
36594;DHT22;22603;47.900;8.146;2023-04-28T13:41:26;17.90;99.90
36594;DHT22;22603;47.900;8.146;2023-04-28T13:44:14;18.00;99.90
36594;DHT22;22603;47.900;8.146;2023-04-28T13:47:01;19.10;99.90
36594;DHT22;22603;47.900;8.146;2023-04-28T13:49:49;19.50;99.90
36594;DHT22;22603;47.900;8.146;2023-04-28T13:52:36;19.70;99.90
36594;DHT22;22603;47.900;8.146;2023-04-28T13:55:23;19.60;99.90
36594;DHT22;22603;47.900;8.146;2023-04-28T13:58:12;19.40;99.90
36594;DHT22;22603;47.900;8.146;2023-04-28T14:01:01;19.00;99.90
36594;DHT22;22603;47.900;8.146;2023-04-28T14:03:48;18.70;99.90
36594;DHT22;22603;47.900;8.146;2023-04-28T14:06:36;18.70;99.90
36594;DHT22;22603;47.900;8.146;2023-04-28T14:09:23;18.90;99.90
36594;DHT22;22603;47.900;8.146;2023-04-28T14:12:10;19.30;99.90
36594;DHT22;22603;47.900;8.146;2023-04-28T14:14:58;19.00;99.90
36594;DHT22;22603;47.900;8.146;2023-04-28T14:17:47;18.80;99.90
36594;DHT22;22603;47.900;8.146;2023-04-28T14:20:34;18.50;99.90
36594;DHT22;22603;47.900;8.146;2023-04-28T14:23:22;18.60;99.90
36594;DHT22;22603;47.900;8.146;2023-04-28T14:26:09;18.60;99.90
36594;DHT22;22603;47.900;8.146;2023-04-28T14:28:56;18.70;99.90
36594;DHT22;22603;47.900;8.146;2023-04-28T14:31:44;18.50;99.90
36594;DHT22;22603;47.900;8.146;2023-04-28T14:34:32;18.20;99.90
36594;DHT22;22603;47.900;8.146;2023-04-28T14:37:19;17.90;99.90
36594;DHT22;22603;47.900;8.146;2023-04-28T14:40:07;17.70;99.90
36594;DHT22;22603;47.900;8.146;2023-04-28T14:42:54;17.50;99.90
36594;DHT22;22603;47.900;8.146;2023-04-28T14:45:41;17.60;99.90
36594;DHT22;22603;47.900;8.146;2023-04-28T14:48:29;17.40;99.90
36594;DHT22;22603;47.900;8.146;2023-04-28T14:51:18;17.00;99.90
36594;DHT22;22603;47.900;8.146;2023-04-28T14:54:05;16.90;99.90
36594;DHT22;22603;47.900;8.146;2023-04-28T14:56:53;17.50;99.90
36594;DHT22;22603;47.900;8.146;2023-04-28T14:59:40;17.70;99.90
36594;DHT22;22603;47.900;8.146;2023-04-28T15:02:27;17.90;99.90
36594;DHT22;22603;47.900;8.146;2023-04-28T15:05:15;17.70;99.90
36594;DHT22;22603;47.900;8.146;2023-04-28T15:08:03;17.40;99.90
36594;DHT22;22603;47.900;8.146;2023-04-28T15:10:50;17.30;99.90
36594;DHT22;22603;47.900;8.146;2023-04-28T15:13:36;17.70;99.90
36594;DHT22;22603;47.900;8.146;2023-04-28T15:16:26;18.10;99.90
36594;DHT22;22603;47.900;8.146;2023-04-28T15:19:13;18.20;99.90
36594;DHT22;22603;47.900;8.146;2023-04-28T15:22:01;18.60;99.90
36594;DHT22;22603;47.900;8.146;2023-04-28T15:24:50;18.70;99.90
36594;DHT22;22603;47.900;8.146;2023-04-28T15:27:40;19.10;99.90
36594;DHT22;22603;47.900;8.146;2023-04-28T15:30:27;19.30;99.90
36594;DHT22;22603;47.900;8.146;2023-04-28T15:33:13;19.20;99.90
36594;DHT22;22603;47.900;8.146;2023-04-28T15:36:03;18.60;99.90
36594;DHT22;22603;47.900;8.146;2023-04-28T15:38:50;18.40;99.90
36594;DHT22;22603;47.900;8.146;2023-04-28T15:41:39;17.90;99.90
36594;DHT22;22603;47.900;8.146;2023-04-28T15:44:26;17.60;99.90
36594;DHT22;22603;47.900;8.146;2023-04-28T15:47:14;17.30;99.90
36594;DHT22;22603;47.900;8.146;2023-04-28T15:50:02;17.10;99.90
36594;DHT22;22603;47.900;8.146;2023-04-28T15:52:49;17.00;99.90
36594;DHT22;22603;47.900;8.146;2023-04-28T15:55:37;16.60;99.90
36594;DHT22;22603;47.900;8.146;2023-04-28T15:58:25;16.30;99.90
36594;DHT22;22603;47.900;8.146;2023-04-28T16:01:12;16.20;99.90
36594;DHT22;22603;47.900;8.146;2023-04-28T16:03:59;16.20;99.90
36594;DHT22;22603;47.900;8.146;2023-04-28T16:06:46;16.10;99.90
36594;DHT22;22603;47.900;8.146;2023-04-28T16:09:35;15.80;99.90
36594;DHT22;22603;47.900;8.146;2023-04-28T16:12:22;15.80;99.90
36594;DHT22;22603;47.900;8.146;2023-04-28T16:15:12;15.70;99.90
36594;DHT22;22603;47.900;8.146;2023-04-28T16:17:59;15.60;99.90
36594;DHT22;22603;47.900;8.146;2023-04-28T16:20:47;15.60;99.90
36594;DHT22;22603;47.900;8.146;2023-04-28T16:23:34;15.70;99.90
36594;DHT22;22603;47.900;8.146;2023-04-28T16:26:20;15.60;99.90
36594;DHT22;22603;47.900;8.146;2023-04-28T16:29:08;15.60;99.90
36594;DHT22;22603;47.900;8.146;2023-04-28T16:32:00;15.50;99.90
36594;DHT22;22603;47.900;8.146;2023-04-28T16:34:47;15.40;99.90
36594;DHT22;22603;47.900;8.146;2023-04-28T16:37:34;15.20;99.90
36594;DHT22;22603;47.900;8.146;2023-04-28T16:40:24;15.20;99.90
36594;DHT22;22603;47.900;8.146;2023-04-28T16:43:10;15.00;99.90
36594;DHT22;22603;47.900;8.146;2023-04-28T16:45:57;15.00;99.90
36594;DHT22;22603;47.900;8.146;2023-04-28T16:48:46;15.00;99.90
36594;DHT22;22603;47.900;8.146;2023-04-28T16:51:34;15.10;99.90
36594;DHT22;22603;47.900;8.146;2023-04-28T16:54:21;15.10;99.90
36594;DHT22;22603;47.900;8.146;2023-04-28T16:57:08;15.10;99.90
36594;DHT22;22603;47.900;8.146;2023-04-28T16:59:55;15.00;99.90
36594;DHT22;22603;47.900;8.146;2023-04-28T17:02:42;15.00;99.90
36594;DHT22;22603;47.900;8.146;2023-04-28T17:05:31;15.00;99.90
36594;DHT22;22603;47.900;8.146;2023-04-28T17:08:19;15.10;99.90
36594;DHT22;22603;47.900;8.146;2023-04-28T17:11:05;15.00;99.90
36594;DHT22;22603;47.900;8.146;2023-04-28T17:13:53;15.10;99.90
36594;DHT22;22603;47.900;8.146;2023-04-28T17:16:41;15.00;99.90
36594;DHT22;22603;47.900;8.146;2023-04-28T17:19:27;14.80;99.90
36594;DHT22;22603;47.900;8.146;2023-04-28T17:22:16;14.80;99.90
36594;DHT22;22603;47.900;8.146;2023-04-28T17:25:04;14.70;99.90
36594;DHT22;22603;47.900;8.146;2023-04-28T17:27:51;14.50;99.90
36594;DHT22;22603;47.900;8.146;2023-04-28T17:30:37;14.50;99.90
36594;DHT22;22603;47.900;8.146;2023-04-28T17:33:31;14.50;99.90
36594;DHT22;22603;47.900;8.146;2023-04-28T17:36:18;14.60;99.90
36594;DHT22;22603;47.900;8.146;2023-04-28T17:39:08;14.60;99.90
36594;DHT22;22603;47.900;8.146;2023-04-28T17:41:55;14.60;99.90
36594;DHT22;22603;47.900;8.146;2023-04-28T17:44:42;14.60;99.90
36594;DHT22;22603;47.900;8.146;2023-04-28T17:47:29;14.60;99.90
36594;DHT22;22603;47.900;8.146;2023-04-28T17:50:17;14.60;99.90
36594;DHT22;22603;47.900;8.146;2023-04-28T17:53:04;14.60;99.90
36594;DHT22;22603;47.900;8.146;2023-04-28T17:55:52;14.50;99.90
36594;DHT22;22603;47.900;8.146;2023-04-28T17:58:41;14.40;99.90
36594;DHT22;22603;47.900;8.146;2023-04-28T18:01:28;14.40;99.90